Hemingford, NE (69348)

2:54 PM MDT on September 02, 2014 (GMT -0600)
Panhandle Coop/Box Butte Co | Change Station
CLOSE
Current Station
Personal Weather Station
Location: Alliance, NE
Elevation: 4140 ft
Nearby Weather Stations

Elev 4140 ft 42.22 °N, 102.98 °W | Updated 58 minutes ago

Clear
Clear
83.7 °F
Feels Like 81 °F
N
11.0
Wind Variable Wind from South
Gusts 18.0 mph

Today
High -- | Low -- °F
--% Chance of Precip.
Yesterday
High -- | Low -- °F
Precip. -- in
6:18 AM 7:24 PM
First Quarter, 55% visible
Pressure 29.86 in
Visibility 10.0 miles
Clouds Clear
Heat Index 81 °F
Dew Point 45 °F
Humidity 26%
Rainfall 0.00 in
Snow Depth Not available.
UV 9 out of 12
Pollen 8.80 out of 12
Air Quality Not available.
Flu Activity Not available.
METAR KAIA 021953Z AUTO 20011KT 10SM CLR 28/08 A2995 RMK AO2 SLP111 T02780078 $

More Conditions Fewer Conditions

Pressure 29.86 in
Visibility 10.0 miles
Clouds Clear
Heat Index 81 °F
Dew Point 45 °F
Humidity 26%
Rainfall 0.00 in
Snow Depth Not available.
UV 9 out of 12
Pollen 8.80 out of 12
Air Quality Not available.
Flu Activity Not available.
METAR KAIA 021953Z AUTO 20011KT 10SM CLR 28/08 A2995 RMK AO2 SLP111 T02780078 $

More Conditions Fewer Conditions

10-Day Weather Forecast

Almanac

Astronomy

Sep. 02, 2014 Rise Set
Actual Time 6:18 AM MDT 7:24 PM MDT
Civil Twilight 5:49 AM MDT 7:53 PM MDT
Nautical Twilight 5:15 AM MDT 8:27 PM MDT
Astronomical Twilight 4:39 AM MDT 9:03 PM MDT
Moon 2:13 PM MDT No Moon Set
Length of Visible Light 14h 03m
Length of Day
13h 05m
Tomorrow will be 2m 45s shorter.
First Quarter, 55% of the Moon is Illuminated
Today
First Quarter
Sep 8
Full
Sep 15
Last Quarter
Sep 24
New
Oct 1
First Quarter

Today's Extremes

State Highs State Lows

Community

WunderPhotos

Upload Photos

1,749,763 photos uploaded!

WunderBlogs® & News

Nearby

Snow Depth

Station Depth Elevation
No new snow has been reported.

Earthquake Activity

City Distance Mag. Time & Date
No recent earthquake activity has been reported nearby.
Minimum magnitude displayed is 2.5.

Coastal Water Temperatures

Place Temperature
No Stations Reporting

Nearby Weather Stations